Time;durP1;ratioP1;P1;durP2;ratioP2;P2;SDS_P1;SDS_P2;PMS_P1;PMS_P2;Temp;Humidity;BMP_temperature;BMP_pressure;BME280_temperature;BME280_humidity;BME280_pressure;Samples;Min_cycle;Max_cycle;Signal;HPM_P1;HPM_P2
2021/08/15 00:01:32;;;;;;;8.48;6.32;;;;;;;30.17;45.34;101278.59;5035968;28;20554;-64
2021/08/15 00:03:59;;;;;;;9.82;5.88;;;;;;;30.14;45.03;101279.00;5035674;28;20046;-64
2021/08/15 00:06:26;;;;;;;8.10;5.90;;;;;;;30.13;45.36;101278.19;5036042;28;20053;-64
2021/08/15 00:08:52;;;;;;;8.70;5.85;;;;;;;30.12;45.03;101283.81;5035755;28;20056;-65
2021/08/15 00:11:19;;;;;;;8.23;6.82;;;;;;;30.07;45.00;101270.88;5035942;28;20052;-65
2021/08/15 00:13:46;;;;;;;9.75;7.40;;;;;;;30.05;45.46;101274.81;5035722;28;20561;-64
2021/08/15 00:16:12;;;;;;;14.18;7.20;;;;;;;30.03;45.02;101269.63;5035797;28;20104;-64
2021/08/15 00:18:39;;;;;;;9.93;6.72;;;;;;;30.00;45.09;101272.72;5035773;28;20073;-64
2021/08/15 00:21:06;;;;;;;9.30;6.68;;;;;;;29.96;45.34;101276.88;5035604;28;20491;-65
2021/08/15 00:23:32;;;;;;;9.30;6.70;;;;;;;29.94;45.27;101273.53;5035472;28;20557;-65
2021/08/15 00:25:59;;;;;;;7.20;6.43;;;;;;;29.92;45.30;101272.91;5035563;28;20091;-65
2021/08/15 00:28:25;;;;;;;10.73;6.28;;;;;;;29.88;45.14;101269.75;5035643;28;20107;-64
2021/08/15 00:30:52;;;;;;;10.45;7.05;;;;;;;29.86;45.24;101268.28;5035593;28;20049;-64
2021/08/15 00:33:19;;;;;;;9.73;6.60;;;;;;;29.87;45.01;101267.25;5035325;28;20076;-65
2021/08/15 00:35:45;;;;;;;9.98;5.53;;;;;;;29.83;45.21;101266.81;5035390;28;20049;-65
2021/08/15 00:38:12;;;;;;;9.73;6.45;;;;;;;29.81;45.42;101264.31;5035163;28;20107;-64
2021/08/15 00:40:39;;;;;;;9.70;6.35;;;;;;;29.81;45.33;101263.44;5035336;28;20103;-64
2021/08/15 00:43:07;;;;;;;9.45;6.10;;;;;;;29.80;45.12;101259.06;5035322;28;20096;-64
2021/08/15 00:45:34;;;;;;;9.65;6.38;;;;;;;29.78;45.16;101258.47;5035232;28;20108;-64
2021/08/15 00:48:08;;;;;;;9.55;6.18;;;;;;;29.75;45.07;101259.69;5035249;28;20048;-64
2021/08/15 00:50:38;;;;;;;10.20;6.43;;;;;;;29.73;45.42;101259.06;5035258;28;20081;-64
2021/08/15 00:53:06;;;;;;;11.02;6.40;;;;;;;29.69;45.27;101255.09;5035139;28;20049;-67
2021/08/15 00:55:34;;;;;;;8.50;6.47;;;;;;;29.65;45.10;101249.25;5034959;28;20046;-67
2021/08/15 00:58:08;;;;;;;9.68;5.93;;;;;;;29.62;45.25;101257.78;5035016;28;20108;-67
2021/08/15 01:00:36;;;;;;;7.60;5.90;;;;;;;29.62;45.43;101255.06;5034938;28;20053;-66
2021/08/15 01:03:03;;;;;;;8.18;5.65;;;;;;;29.58;45.27;101251.09;5035246;28;20077;-65
2021/08/15 01:05:30;;;;;;;10.30;6.15;;;;;;;29.56;45.41;101249.63;5033945;28;20049;-65
2021/08/15 01:08:00;;;;;;;9.27;6.15;;;;;;;29.54;45.39;101249.00;5034605;28;20553;-64
2021/08/15 01:10:28;;;;;;;10.02;6.15;;;;;;;29.53;45.36;101240.03;5034703;28;20084;-64
2021/08/15 01:12:55;;;;;;;8.68;6.35;;;;;;;29.54;45.22;101249.00;5034721;28;20048;-65
2021/08/15 01:15:21;;;;;;;14.15;7.05;;;;;;;29.52;45.48;101242.94;5034680;28;20120;-65
2021/08/15 01:17:48;;;;;;;9.20;6.65;;;;;;;29.53;45.54;101245.44;5034894;28;20045;-65
2021/08/15 01:20:15;;;;;;;8.77;6.30;;;;;;;29.49;45.64;101244.19;5034553;28;20053;-65
2021/08/15 01:22:44;;;;;;;11.23;6.32;;;;;;;29.45;45.82;101245.63;5034622;28;20045;-65
2021/08/15 01:25:13;;;;;;;10.10;6.68;;;;;;;29.43;46.01;101239.56;5034629;28;20462;-65
2021/08/15 01:27:42;;;;;;;11.05;7.00;;;;;;;29.36;45.95;101244.94;5034419;28;20041;-64
2021/08/15 01:30:12;;;;;;;10.15;6.75;;;;;;;29.38;45.82;101240.19;5034393;28;20092;-64
2021/08/15 01:32:43;;;;;;;12.30;7.63;;;;;;;29.37;46.07;101234.97;5034348;28;20050;-64
2021/08/15 01:35:11;;;;;;;9.57;7.75;;;;;;;29.37;45.82;101243.94;5034354;28;20495;-64
2021/08/15 01:37:37;;;;;;;9.88;7.63;;;;;;;29.34;45.99;101238.91;5034165;28;20049;-65
2021/08/15 01:40:06;;;;;;;7.93;6.95;;;;;;;29.31;45.98;101239.31;5034291;28;20049;-67
2021/08/15 01:42:33;;;;;;;9.65;6.15;;;;;;;29.29;46.25;101235.97;5034207;28;20049;-67
2021/08/15 01:45:00;;;;;;;9.52;6.47;;;;;;;29.31;46.29;101242.84;5034194;28;20046;-67
2021/08/15 01:47:27;;;;;;;9.25;7.38;;;;;;;29.34;46.00;101232.66;5034001;28;20046;-67
2021/08/15 01:49:54;;;;;;;9.65;6.82;;;;;;;29.30;46.54;101238.47;5034059;28;20558;-66
2021/08/15 01:52:21;;;;;;;12.93;7.22;;;;;;;29.27;46.38;101233.44;5033894;28;20180;-67
2021/08/15 01:54:48;;;;;;;11.23;7.05;;;;;;;29.21;47.28;101233.41;5033818;28;20049;-67
2021/08/15 01:57:15;;;;;;;11.23;7.25;;;;;;;29.17;46.95;101228.38;5033947;28;20045;-67
2021/08/15 01:59:41;;;;;;;10.38;6.30;;;;;;;29.14;47.32;101228.78;5033959;28;20119;-67
2021/08/15 02:02:08;;;;;;;10.23;6.15;;;;;;;29.15;47.31;101227.75;5033997;28;20042;-66
2021/08/15 02:04:35;;;;;;;11.52;7.28;;;;;;;29.11;47.49;101231.03;5033737;28;20128;-66
2021/08/15 02:07:03;;;;;;;11.32;6.57;;;;;;;29.04;47.96;101225.59;5033765;28;20483;-66
2021/08/15 02:09:29;;;;;;;8.30;5.80;;;;;;;28.97;47.97;101224.72;5033600;28;20072;-67
2021/08/15 02:11:56;;;;;;;8.73;6.78;;;;;;;28.94;48.13;101225.13;5033603;28;20049;-66
2021/08/15 02:14:22;;;;;;;11.02;7.18;;;;;;;28.88;48.36;101231.31;5015674;28;20049;-67
2021/08/15 02:16:49;;;;;;;9.00;6.45;;;;;;;28.82;48.68;101227.50;5033497;28;20128;-66
2021/08/15 02:19:16;;;;;;;9.90;6.35;;;;;;;28.74;49.12;101228.50;5033501;28;20515;-66
2021/08/15 02:21:42;;;;;;;7.70;6.90;;;;;;;28.71;49.29;101228.91;5033424;28;20085;-66
2021/08/15 02:24:09;;;;;;;9.40;7.25;;;;;;;28.69;49.12;101228.25;5033358;28;20092;-66
2021/08/15 02:26:36;;;;;;;9.13;6.95;;;;;;;28.70;49.24;101226.38;5033368;28;20049;-66
2021/08/15 02:29:03;;;;;;;8.30;6.97;;;;;;;28.66;49.42;101229.47;5033378;28;20111;-66
2021/08/15 02:31:29;;;;;;;9.02;7.05;;;;;;;28.62;49.47;101221.91;5033241;28;20041;-67
2021/08/15 02:33:56;;;;;;;9.88;7.65;;;;;;;28.59;49.67;101225.84;5033096;28;20057;-67
2021/08/15 02:36:22;;;;;;;11.73;8.27;;;;;;;28.57;50.05;101219.81;5033270;28;20103;-67
2021/08/15 02:38:49;;;;;;;14.45;9.27;;;;;;;28.55;50.09;101221.06;5033267;28;20045;-67
2021/08/15 02:41:15;;;;;;;13.18;8.43;;;;;;;28.54;49.79;101219.38;5033043;28;20042;-66
2021/08/15 02:43:42;;;;;;;12.98;9.15;;;;;;;28.56;50.01;101211.94;5033150;28;20045;-66
2021/08/15 02:46:09;;;;;;;10.15;9.15;;;;;;;28.53;50.25;101215.81;5033028;28;20466;-66
2021/08/15 02:48:37;;;;;;;11.73;8.80;;;;;;;28.50;50.20;101219.75;5032865;28;20095;-66
2021/08/15 02:51:04;;;;;;;15.25;9.57;;;;;;;28.48;50.31;101212.88;5032943;28;20108;-67
2021/08/15 02:53:31;;;;;;;10.15;8.45;;;;;;;28.46;50.25;101209.56;5032783;28;20053;-67
2021/08/15 02:55:57;;;;;;;17.00;9.52;;;;;;;28.39;50.98;101209.50;5032874;28;20537;-67
2021/08/15 02:58:24;;;;;;;12.77;9.40;;;;;;;28.33;51.16;101210.28;5032816;28;20053;-66
2021/08/15 03:00:53;;;;;;;12.30;10.20;;;;;;;28.28;51.26;101218.94;5032743;28;20514;-66
2021/08/15 03:03:21;;;;;;;12.00;9.68;;;;;;;28.25;51.64;101210.38;5029201;28;20396;-67
2021/08/15 03:05:47;;;;;;;14.02;10.13;;;;;;;28.17;51.77;101214.03;5028855;28;20045;-67
2021/08/15 03:08:14;;;;;;;14.00;9.85;;;;;;;28.14;52.00;101217.97;5028834;28;20554;-67
2021/08/15 03:10:40;;;;;;;11.32;9.23;;;;;;;28.10;51.87;101214.00;5029048;28;20050;-67
2021/08/15 03:13:07;;;;;;;14.15;10.13;;;;;;;27.99;52.48;101209.88;5028894;28;20080;-65
2021/08/15 03:15:35;;;;;;;10.50;9.40;;;;;;;27.98;52.18;101212.78;5029492;28;20053;-65
2021/08/15 03:18:01;;;;;;;11.48;9.25;;;;;;;27.99;52.35;101215.28;5029302;28;20100;-65
2021/08/15 03:20:28;;;;;;;10.15;8.90;;;;;;;27.98;52.02;101210.91;5029064;28;20050;-65
2021/08/15 03:22:55;;;;;;;11.32;10.05;;;;;;;27.97;52.11;101211.97;5028851;28;20507;-64
2021/08/15 03:25:21;;;;;;;11.95;9.10;;;;;;;28.00;51.86;101213.44;5028845;28;20483;-64
2021/08/15 03:27:48;;;;;;;13.35;9.45;;;;;;;27.99;51.84;101209.06;5028263;28;20045;-64
2021/08/15 03:30:15;;;;;;;10.98;9.23;;;;;;;28.04;51.91;101206.66;5028938;28;20041;-65
2021/08/15 03:32:42;;;;;;;10.63;9.50;;;;;;;28.03;51.91;101208.50;5028867;28;20056;-65
2021/08/15 03:35:08;;;;;;;14.45;11.25;;;;;;;28.01;51.85;101205.16;5028692;28;20049;-65
2021/08/15 03:37:35;;;;;;;12.40;10.45;;;;;;;28.01;51.71;101205.16;5028944;28;20546;-65
2021/08/15 03:40:02;;;;;;;14.60;11.20;;;;;;;28.02;51.73;101203.28;5029093;28;20951;-64
2021/08/15 03:42:28;;;;;;;15.25;10.85;;;;;;;28.03;51.61;101210.38;5028548;28;20049;-65
2021/08/15 03:44:55;;;;;;;14.35;11.30;;;;;;;28.02;51.51;101209.53;5028750;28;20084;-64
2021/08/15 03:47:22;;;;;;;11.15;9.82;;;;;;;28.00;51.74;101208.88;5028638;28;20546;-65
2021/08/15 03:49:48;;;;;;;11.95;10.70;;;;;;;27.98;51.88;101210.09;5028443;28;20045;-64
2021/08/15 03:52:15;;;;;;;12.45;10.45;;;;;;;27.92;52.11;101214.41;5028406;28;20052;-64
2021/08/15 03:54:42;;;;;;;13.65;11.02;;;;;;;27.89;52.39;101213.94;5028320;28;20499;-65
2021/08/15 03:57:08;;;;;;;13.38;10.90;;;;;;;27.88;52.48;101214.97;5028414;28;20046;-65
2021/08/15 03:59:35;;;;;;;15.38;10.65;;;;;;;27.89;52.54;101213.94;5028392;28;20046;-65
2021/08/15 04:02:01;;;;;;;14.27;11.18;;;;;;;27.86;52.75;101215.16;5028621;28;20057;-64
2021/08/15 04:04:28;;;;;;;13.70;10.52;;;;;;;27.82;53.14;101214.69;5028286;28;20068;-65
2021/08/15 04:06:55;;;;;;;12.20;10.55;;;;;;;27.79;53.41;101222.31;5028675;28;20460;-65
2021/08/15 04:09:21;;;;;;;12.20;11.10;;;;;;;27.76;53.92;101217.31;5028279;28;20447;-64
2021/08/15 04:11:48;;;;;;;13.98;11.98;;;;;;;27.73;53.94;101221.22;5028253;28;20530;-65
2021/08/15 04:14:14;;;;;;;15.23;11.55;;;;;;;27.73;53.66;101221.22;5028171;28;20447;-64
2021/08/15 04:16:41;;;;;;;16.98;11.93;;;;;;;27.72;53.74;101221.41;5028314;28;20095;-65
2021/08/15 04:19:07;;;;;;;14.65;11.90;;;;;;;27.67;53.69;101220.09;5028362;28;20388;-65
2021/08/15 04:21:34;;;;;;;13.50;11.43;;;;;;;27.66;53.92;101213.03;5028262;28;20123;-65
2021/08/15 04:24:01;;;;;;;14.95;12.13;;;;;;;27.68;53.91;101216.41;5028605;28;20490;-64
2021/08/15 04:26:27;;;;;;;13.73;11.23;;;;;;;27.67;53.95;101221.97;5028186;28;20045;-64
2021/08/15 04:28:54;;;;;;;13.63;12.13;;;;;;;27.66;54.00;101223.81;5028441;28;20058;-65
2021/08/15 04:31:21;;;;;;;13.95;11.45;;;;;;;27.67;53.94;101217.41;5027996;28;20103;-64
2021/08/15 04:33:48;;;;;;;13.23;11.93;;;;;;;27.70;54.18;101221.59;5028060;28;20095;-64
2021/08/15 04:36:14;;;;;;;14.95;12.55;;;;;;;27.68;54.12;101227.19;5028404;28;20045;-65
2021/08/15 04:38:41;;;;;;;14.23;12.32;;;;;;;27.69;54.21;101228.00;5028173;28;20104;-65
2021/08/15 04:41:08;;;;;;;15.48;11.90;;;;;;;27.67;54.71;101221.97;5030109;28;20099;-64
2021/08/15 04:43:34;;;;;;;12.95;11.35;;;;;;;27.69;54.29;101225.31;5031954;28;20051;-65
2021/08/15 04:46:01;;;;;;;13.13;11.60;;;;;;;27.75;54.29;101226.44;5032121;28;20099;-65
2021/08/15 04:48:28;;;;;;;14.05;11.32;;;;;;;27.83;54.08;101226.31;5031653;28;20124;-65
2021/08/15 04:50:55;;;;;;;17.10;11.55;;;;;;;27.85;53.59;101227.78;5031662;28;20466;-65
2021/08/15 04:53:21;;;;;;;20.55;11.55;;;;;;;27.85;53.63;101230.47;5031468;28;20041;-65
2021/08/15 04:55:48;;;;;;;16.30;10.90;;;;;;;27.93;53.13;101236.78;5031472;28;20096;-64
2021/08/15 04:58:15;;;;;;;16.27;10.18;;;;;;;27.95;52.84;101235.59;5031566;28;20046;-64
2021/08/15 05:00:41;;;;;;;13.68;10.65;;;;;;;27.95;52.45;101232.06;5031605;28;20085;-65
2021/08/15 05:03:08;;;;;;;12.45;10.20;;;;;;;28.00;52.06;101237.72;5031236;28;20099;-65
2021/08/15 05:05:37;;;;;;;15.05;9.60;;;;;;;28.03;51.85;101234.66;5031479;28;20053;-65
2021/08/15 05:08:04;;;;;;;14.90;9.07;;;;;;;28.08;51.44;101234.09;5031391;28;20053;-65
2021/08/15 05:10:31;;;;;;;13.98;8.95;;;;;;;28.08;51.14;101237.63;5031559;28;20112;-65
2021/08/15 05:12:58;;;;;;;10.80;9.13;;;;;;;28.11;50.88;101236.41;5031184;28;20388;-65
2021/08/15 05:15:24;;;;;;;12.20;10.07;;;;;;;28.10;51.02;101238.28;5030942;28;20573;-65
2021/08/15 05:17:51;;;;;;;13.85;9.50;;;;;;;28.10;51.20;101238.28;5031170;28;20091;-65
2021/08/15 05:20:18;;;;;;;14.32;9.65;;;;;;;28.11;51.04;101239.09;5031204;28;20095;-65
2021/08/15 05:22:46;;;;;;;14.25;9.52;;;;;;;28.15;51.03;101243.94;5031050;28;20487;-65
2021/08/15 05:25:12;;;;;;;11.30;9.13;;;;;;;28.21;50.80;101233.41;5031226;28;20052;-65
2021/08/15 05:27:39;;;;;;;12.73;9.10;;;;;;;28.25;50.79;101235.53;5031095;28;20050;-65
2021/08/15 05:30:06;;;;;;;12.38;8.63;;;;;;;28.23;50.43;101236.75;5031128;28;20049;-67
2021/08/15 05:32:34;;;;;;;11.10;8.13;;;;;;;28.24;50.31;101246.50;5030891;28;20132;-67
2021/08/15 05:35:01;;;;;;;15.80;9.35;;;;;;;28.23;50.32;101245.66;5031260;28;20462;-67
2021/08/15 05:37:28;;;;;;;10.00;8.48;;;;;;;28.28;49.87;101245.94;5030928;28;20053;-67
2021/08/15 05:39:55;;;;;;;16.83;9.55;;;;;;;28.33;49.94;101245.34;5030706;28;20091;-67
2021/08/15 05:42:21;;;;;;;13.25;9.55;;;;;;;28.40;49.91;101240.84;5030658;28;20049;-67
2021/08/15 05:44:48;;;;;;;14.05;9.50;;;;;;;28.42;49.91;101243.38;5030909;28;20109;-67
2021/08/15 05:47:14;;;;;;;14.40;10.43;;;;;;;28.46;49.94;101248.16;5030553;28;20095;-67
2021/08/15 05:49:41;;;;;;;11.18;9.98;;;;;;;28.52;50.02;101241.19;5030547;28;20184;-67
2021/08/15 05:52:08;;;;;;;13.85;10.07;;;;;;;28.52;49.92;101241.19;5030412;28;20542;-67
2021/08/15 05:54:34;;;;;;;11.75;9.43;;;;;;;28.60;49.54;101241.03;5030329;28;20367;-67
2021/08/15 05:57:01;;;;;;;15.57;9.73;;;;;;;28.65;49.51;101243.97;5030658;28;20522;-67
2021/08/15 05:59:31;;;;;;;14.45;10.15;;;;;;;28.70;49.65;101248.84;5030443;28;20517;-67
2021/08/15 06:01:58;;;;;;;12.05;9.65;;;;;;;28.77;49.20;101247.03;5030360;28;20077;-67
2021/08/15 06:04:24;;;;;;;12.05;8.25;;;;;;;28.86;48.84;101255.78;5030077;28;20509;-67
2021/08/15 06:06:51;;;;;;;11.55;7.68;;;;;;;28.96;48.66;101244.66;5030249;28;20041;-67
2021/08/15 06:09:18;;;;;;;9.05;6.93;;;;;;;29.00;48.13;101254.88;5030092;28;20083;-67
2021/08/15 06:11:46;;;;;;;9.85;6.78;;;;;;;29.06;48.04;101245.13;5030174;28;20057;-67
2021/08/15 06:14:14;;;;;;;9.40;6.35;;;;;;;29.13;47.66;101243.31;5029968;28;20046;-67
2021/08/15 06:16:41;;;;;;;9.13;7.30;;;;;;;29.19;47.81;101243.56;5030249;28;20536;-67
2021/08/15 06:19:08;;;;;;;10.95;7.28;;;;;;;29.27;47.33;101243.41;5030406;28;20128;-67
2021/08/15 06:21:34;;;;;;;9.43;7.00;;;;;;;29.32;47.46;101249.09;5029863;28;20553;-65
2021/08/15 06:24:01;;;;;;;11.68;7.10;;;;;;;29.45;47.50;101251.84;5030018;28;20045;-65
2021/08/15 06:26:29;;;;;;;10.50;7.32;;;;;;;29.50;47.00;101248.56;5029802;28;20045;-65
2021/08/15 06:28:55;;;;;;;15.50;8.77;;;;;;;29.57;47.09;101246.72;5029807;28;20045;-65
2021/08/15 06:31:23;;;;;;;10.73;7.70;;;;;;;29.60;46.89;101249.03;5029619;28;20049;-65
2021/08/15 06:33:51;;;;;;;9.10;6.90;;;;;;;29.69;47.26;101246.13;5030270;28;20436;-65
2021/08/15 06:36:17;;;;;;;9.82;7.38;;;;;;;29.74;47.12;101247.22;5029869;28;20057;-65
2021/08/15 06:38:44;;;;;;;9.13;6.85;;;;;;;29.81;46.64;101250.78;5029679;28;20042;-65
2021/08/15 06:41:11;;;;;;;13.63;8.20;;;;;;;29.84;46.80;101245.97;5029799;28;20107;-65
2021/08/15 06:43:37;;;;;;;11.52;9.13;;;;;;;29.90;46.67;101250.63;5029402;28;20542;-65
2021/08/15 06:46:04;;;;;;;12.65;9.57;;;;;;;29.87;46.74;101251.00;5029544;28;20053;-65
2021/08/15 06:48:31;;;;;;;12.52;9.18;;;;;;;29.95;46.69;101248.13;5029510;28;20049;-65
2021/08/15 06:50:58;;;;;;;18.58;11.50;;;;;;;29.99;47.04;101249.38;5029439;28;20045;-65
2021/08/15 06:53:27;;;;;;;12.57;10.52;;;;;;;30.07;47.01;101245.69;5029307;28;20076;-65
2021/08/15 06:55:56;;;;;;;11.40;9.43;;;;;;;30.14;46.87;101241.09;5029273;28;20054;-65
2021/08/15 06:58:22;;;;;;;12.15;8.38;;;;;;;30.14;46.94;101238.41;5029187;28;20046;-65
2021/08/15 07:00:49;;;;;;;14.77;8.38;;;;;;;30.25;46.33;101242.38;5029244;28;20045;-65
2021/08/15 07:03:16;;;;;;;14.63;8.68;;;;;;;30.36;46.22;101239.06;5028363;28;20041;-65
2021/08/15 07:05:43;;;;;;;9.10;7.68;;;;;;;30.42;46.71;101242.81;5029480;28;20052;-65
2021/08/15 07:08:09;;;;;;;10.15;7.88;;;;;;;30.51;46.52;101236.16;5029388;28;20131;-65
2021/08/15 07:10:36;;;;;;;11.70;8.32;;;;;;;30.61;46.48;101238.47;5029612;28;20057;-65
2021/08/15 07:13:07;;;;;;;9.32;7.60;;;;;;;30.73;46.46;101236.81;5028884;28;20048;-65
2021/08/15 07:15:35;;;;;;;12.95;8.60;;;;;;;30.77;46.07;101232.63;5028820;28;20462;-65
2021/08/15 07:18:02;;;;;;;9.90;8.50;;;;;;;30.87;46.37;101226.78;5029127;28;20085;-65
2021/08/15 07:20:29;;;;;;;12.05;8.00;;;;;;;31.02;46.06;101229.28;5029080;28;20049;-65
2021/08/15 07:22:57;;;;;;;9.38;7.45;;;;;;;31.13;45.61;101227.81;5029028;28;20046;-65
2021/08/15 07:25:28;;;;;;;8.30;7.43;;;;;;;31.24;45.31;101229.06;5028972;28;20103;-65
2021/08/15 07:27:56;;;;;;;8.88;7.60;;;;;;;31.21;45.19;101224.03;5028784;28;20099;-65
2021/08/15 07:30:24;;;;;;;9.82;7.10;;;;;;;31.26;45.25;101224.22;5029241;28;20049;-66
2021/08/15 07:32:59;;;;;;;8.50;6.68;;;;;;;31.31;44.60;101226.31;5028846;28;20048;-65
2021/08/15 07:35:27;;;;;;;9.50;7.47;;;;;;;31.42;44.77;101225.66;5028799;28;20053;-65
2021/08/15 07:37:53;;;;;;;9.80;7.03;;;;;;;31.50;44.35;101225.41;5028931;28;20050;-65
2021/08/15 07:40:20;;;;;;;10.57;7.00;;;;;;;31.61;44.52;101221.19;5028541;28;20076;-65
2021/08/15 07:42:50;;;;;;;8.05;6.20;;;;;;;31.75;44.21;101214.66;5028843;28;20053;-65
2021/08/15 07:45:20;;;;;;;7.85;5.70;;;;;;;31.80;44.30;101218.63;5028578;28;20666;-65
2021/08/15 07:47:46;;;;;;;8.50;7.40;;;;;;;31.87;44.02;101212.13;5028894;28;20049;-65
2021/08/15 07:50:14;;;;;;;9.43;6.03;;;;;;;31.99;43.59;101212.25;5028880;28;20643;-66
2021/08/15 07:52:41;;;;;;;8.68;6.53;;;;;;;32.12;43.47;101211.31;5028691;28;20049;-66
2021/08/15 07:55:08;;;;;;;9.25;6.38;;;;;;;32.16;43.23;101217.16;5028428;28;20077;-65
2021/08/15 07:57:35;;;;;;;9.85;6.28;;;;;;;32.13;43.20;101214.88;5028322;28;20045;-65
2021/08/15 08:00:03;;;;;;;11.30;7.57;;;;;;;32.20;42.55;101212.97;5028409;28;20038;-66
2021/08/15 08:02:29;;;;;;;7.07;6.13;;;;;;;32.18;42.61;101207.75;5028721;28;20061;-65
2021/08/15 08:04:56;;;;;;;12.80;6.57;;;;;;;32.38;42.03;101204.91;5028514;28;20071;-65
2021/08/15 08:07:24;;;;;;;9.20;5.72;;;;;;;32.47;42.22;101201.88;5028428;28;20423;-65
2021/08/15 08:09:52;;;;;;;7.30;5.70;;;;;;;32.65;41.36;101196.50;5028635;28;20049;-66
2021/08/15 08:12:20;;;;;;;7.63;5.60;;;;;;;32.78;41.09;101202.91;5028128;28;20057;-65
2021/08/15 08:14:48;;;;;;;7.03;5.30;;;;;;;32.91;40.28;101196.50;5029989;28;20053;-65
2021/08/15 08:17:17;;;;;;;7.93;5.47;;;;;;;33.08;39.56;101199.44;5032156;28;20045;-66
2021/08/15 08:19:45;;;;;;;9.85;5.65;;;;;;;33.04;39.95;101191.75;5032394;28;20144;-66
2021/08/15 08:22:12;;;;;;;8.02;5.85;;;;;;;33.15;39.88;101192.06;5032790;28;20045;-65
2021/08/15 08:24:38;;;;;;;7.13;6.43;;;;;;;33.29;39.21;101193.59;5032039;28;20103;-66
2021/08/15 08:27:05;;;;;;;10.05;6.00;;;;;;;33.37;39.14;101196.00;5032320;28;20046;-65
2021/08/15 08:29:32;;;;;;;7.85;5.63;;;;;;;33.44;39.00;101193.19;5032019;28;20060;-66
2021/08/15 08:31:58;;;;;;;9.55;6.07;;;;;;;33.52;39.15;101189.31;5032077;28;20053;-66
2021/08/15 08:34:25;;;;;;;8.40;6.13;;;;;;;33.68;38.87;101201.47;5031918;28;20172;-66
2021/08/15 08:36:52;;;;;;;9.60;6.55;;;;;;;33.85;38.85;101193.50;5032157;28;20084;-66
2021/08/15 08:39:18;;;;;;;7.30;6.47;;;;;;;34.04;38.41;101193.44;5031858;28;20083;-66
2021/08/15 08:41:46;;;;;;;8.32;6.32;;;;;;;34.17;38.22;101202.25;5032120;28;20053;-66
2021/08/15 08:44:13;;;;;;;8.73;5.78;;;;;;;34.34;38.01;101207.84;5031837;28;20111;-66
2021/08/15 08:46:41;;;;;;;10.07;6.03;;;;;;;34.45;37.94;101206.22;5031613;28;20050;-66
2021/08/15 08:49:08;;;;;;;7.82;6.10;;;;;;;34.63;37.91;101197.09;5031806;28;20099;-66
2021/08/15 08:51:35;;;;;;;8.30;5.85;;;;;;;34.66;37.52;101195.81;5031502;28;20119;-66
2021/08/15 08:54:22;;;;;;;8.25;6.35;;;;;;;34.77;37.58;101191.41;5031832;28;20182;-66
2021/08/15 08:56:49;;;;;;;8.43;6.35;;;;;;;34.86;37.03;101190.00;5031645;28;20061;-66
2021/08/15 08:59:16;;;;;;;8.77;5.47;;;;;;;35.07;36.43;101187.72;5031743;28;20057;-66
2021/08/15 09:01:42;;;;;;;5.95;5.03;;;;;;;35.19;35.90;101174.88;5031664;28;20053;-66
2021/08/15 09:04:10;;;;;;;7.45;4.28;;;;;;;35.35;35.08;101176.03;5031587;28;20565;-66
2021/08/15 09:06:42;;;;;;;5.68;4.93;;;;;;;35.40;34.74;101173.44;5031807;28;20104;-66
2021/08/15 09:09:16;;;;;;;7.00;4.75;;;;;;;35.41;34.17;101171.53;5031577;28;20062;-66
2021/08/15 09:11:49;;;;;;;5.13;4.32;;;;;;;35.57;33.52;101175.38;5031647;28;20069;-66
2021/08/15 09:14:22;;;;;;;4.57;3.45;;;;;;;35.76;32.13;101176.00;5031252;28;20402;-66
2021/08/15 09:16:53;;;;;;;10.97;4.53;;;;;;;35.90;31.24;101163.72;5031444;28;20100;-66
2021/08/15 09:19:23;;;;;;;5.40;3.92;;;;;;;35.93;31.09;101162.38;5031093;28;20284;-66
2021/08/15 09:21:50;;;;;;;4.68;4.15;;;;;;;35.99;30.75;101166.06;5031353;28;20046;-66
2021/08/15 09:24:16;;;;;;;6.55;4.28;;;;;;;36.13;29.88;101156.44;5030965;28;20049;-66
2021/08/15 09:27:00;;;;;;;6.47;4.47;;;;;;;36.24;30.12;101162.88;5030235;28;20134;-66
2021/08/15 09:29:27;;;;;;;6.07;4.32;;;;;;;36.35;30.10;101158.41;5030846;28;20072;-66
2021/08/15 09:31:55;;;;;;;7.18;4.75;;;;;;;36.47;30.02;101151.00;5030936;28;20557;-66
2021/08/15 09:34:27;;;;;;;8.05;4.22;;;;;;;36.66;29.74;101154.25;5030985;28;20140;-66
2021/08/15 09:36:55;;;;;;;7.28;4.93;;;;;;;36.74;29.37;101148.34;5030783;28;20049;-66
2021/08/15 09:39:33;;;;;;;6.47;4.78;;;;;;;36.89;28.99;101145.00;5030824;28;20507;-66
2021/08/15 09:42:00;;;;;;;5.95;4.47;;;;;;;36.92;29.50;101139.03;5030814;28;20060;-66
2021/08/15 09:44:29;;;;;;;5.38;4.20;;;;;;;37.05;29.10;101137.84;5030583;28;20480;-66
2021/08/15 09:47:01;;;;;;;5.87;4.40;;;;;;;37.22;29.06;101131.44;5030797;28;20077;-66
2021/08/15 09:49:38;;;;;;;5.55;4.68;;;;;;;37.32;28.91;101122.50;5030496;28;20049;-66
2021/08/15 09:52:06;;;;;;;6.72;4.70;;;;;;;37.40;29.16;101130.31;5030913;28;20046;-66
2021/08/15 09:54:33;;;;;;;6.80;4.65;;;;;;;37.56;29.31;101117.56;5030487;28;20054;-66
2021/08/15 09:57:04;;;;;;;6.20;4.95;;;;;;;37.80;29.27;101114.50;5030386;28;20046;-66
2021/08/15 09:59:35;;;;;;;5.93;4.70;;;;;;;37.91;29.24;101116.25;5030360;28;20050;-66
2021/08/15 10:02:04;;;;;;;6.63;5.32;;;;;;;37.87;29.25;101117.88;5030277;28;20049;-66
2021/08/15 10:04:32;;;;;;;7.18;4.53;;;;;;;37.96;29.04;101115.50;5030496;28;20064;-66
2021/08/15 10:06:59;;;;;;;5.32;4.38;;;;;;;38.11;28.38;101115.59;5012860;28;20049;-66
2021/08/15 10:09:27;;;;;;;5.82;4.25;;;;;;;38.12;28.21;101113.66;5030131;28;20053;-66
2021/08/15 10:11:54;;;;;;;4.28;3.88;;;;;;;38.30;27.71;101115.22;5030366;28;20103;-66
2021/08/15 10:14:20;;;;;;;6.60;4.53;;;;;;;38.48;27.26;101102.97;5030089;28;20577;-66
2021/08/15 10:16:53;;;;;;;6.80;5.05;;;;;;;38.54;26.95;101105.47;5030046;28;20065;-66
2021/08/15 10:19:35;;;;;;;7.88;4.88;;;;;;;38.53;26.37;101109.28;5030175;28;20495;-66
2021/08/15 10:22:03;;;;;;;4.75;4.25;;;;;;;38.65;26.62;101102.75;5029925;28;20045;-66
2021/08/15 10:24:45;;;;;;;7.00;4.40;;;;;;;38.82;26.13;101095.19;5029895;28;20053;-66
2021/08/15 10:27:45;;;;;;;5.43;4.50;;;;;;;38.85;25.98;101093.81;5029890;28;20061;-66
2021/08/15 10:30:12;;;;;;;5.65;4.40;;;;;;;39.00;26.10;101095.78;4977525;28;20046;-66
2021/08/15 10:32:54;;;;;;;5.63;4.60;;;;;;;39.05;25.92;101087.56;5029836;28;20385;-66
2021/08/15 10:35:21;;;;;;;7.22;5.30;;;;;;;39.25;25.78;101094.22;5029783;28;20045;-67
2021/08/15 10:37:51;;;;;;;5.30;4.53;;;;;;;39.32;25.97;101086.56;5028742;28;20041;-66
2021/08/15 10:40:40;;;;;;;5.13;4.45;;;;;;;39.33;26.00;101082.72;5029964;28;20100;-66
2021/08/15 10:43:36;;;;;;;6.25;4.50;;;;;;;39.44;25.68;101078.03;5029628;28;20104;-67
2021/08/15 10:46:15;;;;;;;8.18;4.55;;;;;;;39.53;26.13;101073.66;5029737;28;20581;-67
2021/08/15 10:49:01;;;;;;;7.13;4.75;;;;;;;39.57;25.76;101068.44;5029602;28;20050;-67
2021/08/15 10:51:41;;;;;;;5.45;4.68;;;;;;;39.55;25.72;101068.72;5029596;28;20100;-66
2021/08/15 10:54:28;;;;;;;5.47;4.07;;;;;;;39.56;25.82;101061.31;5029589;28;20054;-66
2021/08/15 10:56:59;;;;;;;4.90;4.40;;;;;;;39.72;25.60;101059.38;5029229;28;20041;-66
2021/08/15 10:59:33;;;;;;;6.72;4.60;;;;;;;39.81;25.39;101053.06;5029353;28;20512;-66
2021/08/15 11:02:17;;;;;;;6.00;4.80;;;;;;;40.02;25.05;101050.28;5029383;28;20049;-66
2021/08/15 11:04:55;;;;;;;6.32;4.63;;;;;;;40.23;24.82;101042.00;5029369;28;20053;-66
2021/08/15 11:07:42;;;;;;;5.63;4.47;;;;;;;40.33;24.71;101039.25;5029165;28;20049;-67
2021/08/15 11:10:12;;;;;;;6.53;4.55;;;;;;;40.39;24.75;101032.59;5029129;28;20041;-66
2021/08/15 11:13:20;;;;;;;8.23;4.97;;;;;;;40.53;24.73;101026.47;5029220;28;20049;-66
2021/08/15 11:15:47;;;;;;;10.02;6.28;;;;;;;40.52;24.50;101020.19;5028893;28;20495;-66
2021/08/15 11:18:15;;;;;;;5.97;4.82;;;;;;;40.65;24.43;101024.25;5028911;28;20095;-66
2021/08/15 11:20:47;;;;;;;10.63;5.07;;;;;;;40.82;24.28;101012.88;5029244;28;20564;-66
2021/08/15 11:23:36;;;;;;;8.90;5.32;;;;;;;40.80;24.02;101013.16;5029054;28;20434;-66
2021/08/15 11:26:12;;;;;;;5.60;4.72;;;;;;;40.73;24.09;101012.63;5029141;28;20103;-67